Time;durP1;ratioP1;P1;durP2;ratioP2;P2;SDS_P1;SDS_P2;PMS_P1;PMS_P2;Temp;Humidity;BMP_temperature;BMP_pressure;BME280_temperature;BME280_humidity;BME280_pressure;Samples;Min_cycle;Max_cycle;Signal;HPM_P1;HPM_P2
2021/07/23 00:02:10;;;;;;;;;;;;;;;18.29;64.27;101116.89;1574744;90;20137;-77
2021/07/23 00:04:36;;;;;;;;;;;;;;;18.27;64.38;101121.33;1552570;89;204938;-77
2021/07/23 00:07:02;;;;;;;;;;;;;;;18.24;64.42;101113.59;1596512;88;20133;-77
2021/07/23 00:09:29;;;;;;;;;;;;;;;18.21;64.38;101111.10;1593509;88;20111;-77
2021/07/23 00:12:05;;;;;;;;;;;;;;;18.18;64.46;101114.73;1591959;88;20115;-77
2021/07/23 00:14:31;;;;;;;;;;;;;;;18.13;64.50;101106.66;1601836;88;20532;-77
2021/07/23 00:16:57;;;;;;;;;;;;;;;18.10;64.53;101115.94;1608471;88;20197;-77
2021/07/23 00:19:25;;;;;;;;;;;;;;;18.04;64.52;101117.48;1595445;88;20222;-77
2021/07/23 00:21:51;;;;;;;;;;;;;;;17.98;64.61;101113.80;1603967;88;20192;-77
2021/07/23 00:24:17;;;;;;;;;;;;;;;17.95;64.69;101109.98;1597239;88;20128;-77
2021/07/23 00:26:51;;;;;;;;;;;;;;;17.89;64.71;101111.53;1603963;88;20348;-77
2021/07/23 00:29:18;;;;;;;;;;;;;;;17.83;64.71;101105.63;1609361;88;20260;-77
2021/07/23 00:31:44;;;;;;;;;;;;;;;17.78;64.79;101107.55;1604950;88;20194;-77
2021/07/23 00:34:11;;;;;;;;;;;;;;;17.73;64.84;101108.19;1600061;88;20191;-77
2021/07/23 00:36:37;;;;;;;;;;;;;;;17.68;64.87;101100.97;1595487;88;20199;-77
2021/07/23 00:39:03;;;;;;;;;;;;;;;17.64;64.99;101103.30;1609113;88;20241;-77
2021/07/23 00:41:29;;;;;;;;;;;;;;;17.61;64.98;101105.17;1608459;88;20188;-77
2021/07/23 00:43:55;;;;;;;;;;;;;;;17.56;65.05;101109.27;1604690;88;20197;-77
2021/07/23 00:46:28;;;;;;;;;;;;;;;17.51;64.97;101100.73;1604145;88;20199;-77
2021/07/23 00:48:54;;;;;;;;;;;;;;;17.37;65.09;101103.85;1593337;88;20103;-77
2021/07/23 00:51:20;;;;;;;;;;;;;;;17.34;65.22;101105.27;1610815;88;20135;-77
2021/07/23 00:53:46;;;;;;;;;;;;;;;17.30;65.22;101101.52;1613466;88;20111;-77
2021/07/23 00:56:13;;;;;;;;;;;;;;;17.28;65.28;101103.33;1607869;88;20099;-77
2021/07/23 00:58:39;;;;;;;;;;;;;;;17.24;65.33;101105.20;1606281;88;20105;-77
2021/07/23 01:01:06;;;;;;;;;;;;;;;17.20;65.40;101104.45;1607061;88;20115;-77
2021/07/23 01:03:32;;;;;;;;;;;;;;;17.18;65.49;101102.80;1605405;88;20092;-77
2021/07/23 01:05:59;;;;;;;;;;;;;;;17.14;65.51;101103.84;1608498;88;20531;-77
2021/07/23 01:08:25;;;;;;;;;;;;;;;17.12;65.57;101106.97;1615935;88;20104;-77
2021/07/23 01:10:53;;;;;;;;;;;;;;;17.08;65.55;101109.29;1613114;88;20145;-77
2021/07/23 01:13:19;;;;;;;;;;;;;;;17.04;65.59;101104.63;1599452;88;20111;-77
2021/07/23 01:15:45;;;;;;;;;;;;;;;17.01;65.66;101104.73;1609368;88;20133;-77
2021/07/23 01:18:11;;;;;;;;;;;;;;;16.98;65.65;101105.28;1609819;88;20117;-77
2021/07/23 01:20:39;;;;;;;;;;;;;;;16.94;65.68;101101.92;1606338;88;20109;-77
2021/07/23 01:23:06;;;;;;;;;;;;;;;16.89;65.73;101101.23;1612564;88;20125;-77
2021/07/23 01:25:34;;;;;;;;;;;;;;;16.85;65.78;101109.62;1603930;88;20137;-77
2021/07/23 01:28:01;;;;;;;;;;;;;;;16.82;65.79;101099.73;1616367;88;20144;-77
2021/07/23 01:30:27;;;;;;;;;;;;;;;16.78;65.88;101100.28;1594441;88;20149;-77
2021/07/23 01:32:53;;;;;;;;;;;;;;;16.75;65.90;101107.38;1616196;88;20101;-77
2021/07/23 01:35:20;;;;;;;;;;;;;;;16.71;66.01;101109.69;1615032;88;20125;-77
2021/07/23 01:37:47;;;;;;;;;;;;;;;16.69;66.03;101111.04;1612618;88;20109;-77
2021/07/23 01:40:14;;;;;;;;;;;;;;;16.66;66.12;101104.61;1613615;88;20188;-77
2021/07/23 01:42:40;;;;;;;;;;;;;;;16.63;66.09;101104.71;1604894;88;20196;-77
2021/07/23 01:45:07;;;;;;;;;;;;;;;16.60;66.14;101104.81;1612907;88;20215;-77
2021/07/23 01:47:33;;;;;;;;;;;;;;;16.59;66.22;101104.86;1611563;88;20157;-77
2021/07/23 01:49:59;;;;;;;;;;;;;;;16.57;66.20;101101.45;1600327;88;20213;-77
2021/07/23 01:52:26;;;;;;;;;;;;;;;16.53;66.25;101101.55;1608378;88;20203;-77
2021/07/23 01:54:52;;;;;;;;;;;;;;;16.51;66.30;101105.97;1610775;88;20186;-77
2021/07/23 01:57:19;;;;;;;;;;;;;;;16.48;66.35;101105.21;1610263;88;20263;-76
2021/07/23 01:59:45;;;;;;;;;;;;;;;16.44;66.43;101103.61;1608634;88;20394;-76
2021/07/23 02:02:11;;;;;;;;;;;;;;;16.43;66.46;101105.81;1602370;88;20196;-76
2021/07/23 02:04:37;;;;;;;;;;;;;;;16.40;66.48;101109.83;1609622;88;20208;-76
2021/07/23 02:07:03;;;;;;;;;;;;;;;16.38;66.56;101113.79;1609533;88;20180;-76
2021/07/23 02:09:29;;;;;;;;;;;;;;;16.35;66.66;101106.51;1612847;88;20702;-76
2021/07/23 02:11:55;;;;;;;;;;;;;;;16.34;66.72;101106.95;1614488;88;20227;-76
2021/07/23 02:14:22;;;;;;;;;;;;;;;16.34;66.72;101106.10;1604874;88;20199;-76
2021/07/23 02:16:48;;;;;;;;;;;;;;;16.32;66.76;101106.60;1601832;88;20200;-76
2021/07/23 02:19:14;;;;;;;;;;;;;;;16.30;66.78;101101.44;1602587;88;20191;-76
2021/07/23 02:21:40;;;;;;;;;;;;;;;16.30;66.82;101108.41;1610657;88;20215;-76
2021/07/23 02:24:07;;;;;;;;;;;;;;;16.29;66.91;101104.09;1612834;88;20213;-76
2021/07/23 02:26:36;;;;;;;;;;;;;;;16.30;66.97;101104.05;1602700;88;20194;-76
2021/07/23 02:29:02;;;;;;;;;;;;;;;16.29;66.94;101106.25;1598011;88;20186;-76
2021/07/23 02:31:28;;;;;;;;;;;;;;;16.28;66.99;101109.77;1604772;88;20877;-76
2021/07/23 02:33:54;;;;;;;;;;;;;;;16.29;67.11;101105.39;1592722;88;20202;-76
2021/07/23 02:36:20;;;;;;;;;;;;;;;16.29;67.04;101097.12;1600896;88;20204;-76
2021/07/23 02:38:46;;;;;;;;;;;;;;;16.26;67.05;101101.13;1612428;87;20243;-76
2021/07/23 02:41:12;;;;;;;;;;;;;;;16.23;67.10;101108.59;1605269;88;20264;-76
2021/07/23 02:43:38;;;;;;;;;;;;;;;16.22;67.24;101105.59;1608481;87;20217;-76
2021/07/23 02:46:04;;;;;;;;;;;;;;;16.23;67.25;101102.08;1608007;87;20459;-76
2021/07/23 02:48:30;;;;;;;;;;;;;;;16.22;67.25;101102.98;1603875;88;20275;-76
2021/07/23 02:50:56;;;;;;;;;;;;;;;16.20;67.28;101102.63;1614230;88;20193;-76
2021/07/23 02:53:23;;;;;;;;;;;;;;;16.20;67.40;101096.95;1597027;88;20180;-76
2021/07/23 02:55:52;;;;;;;;;;;;;;;16.21;67.44;101096.50;1596079;88;20219;-76
2021/07/23 02:58:18;;;;;;;;;;;;;;;16.20;67.50;101094.34;1607416;88;20203;-76
2021/07/23 03:00:45;;;;;;;;;;;;;;;16.20;67.50;101094.34;1605559;88;20131;-77
2021/07/23 03:03:11;;;;;;;;;;;;;;;16.18;67.49;101095.30;1616004;88;20100;-77
2021/07/23 03:05:37;;;;;;;;;;;;;;;16.16;67.47;101095.34;1612868;88;20160;-77
2021/07/23 03:08:06;;;;;;;;;;;;;;;16.15;67.57;101096.70;1614939;88;20117;-77
2021/07/23 03:10:33;;;;;;;;;;;;;;;16.14;67.61;101097.14;1593664;88;20103;-77
2021/07/23 03:13:00;;;;;;;;;;;;;;;16.13;67.65;101095.44;1614445;88;20113;-77
2021/07/23 03:15:26;;;;;;;;;;;;;;;16.14;67.73;101093.23;1609972;88;20180;-77
2021/07/23 03:18:00;;;;;;;;;;;;;;;16.13;67.74;101090.67;1605418;88;20221;-77
2021/07/23 03:20:27;;;;;;;;;;;;;;;16.13;67.82;101091.97;1608329;88;20186;-77
2021/07/23 03:22:53;;;;;;;;;;;;;;;16.14;67.83;101089.77;1594284;88;20234;-77
2021/07/23 03:25:19;;;;;;;;;;;;;;;16.13;67.89;101093.28;1603776;88;20238;-77
2021/07/23 03:27:45;;;;;;;;;;;;;;;16.13;67.96;101087.61;1604009;88;20901;-77
2021/07/23 03:30:12;;;;;;;;;;;;;;;16.14;67.93;101089.77;1610681;88;20282;-77
2021/07/23 03:32:38;;;;;;;;;;;;;;;16.14;67.97;101090.63;1607649;88;20211;-77
2021/07/23 03:35:06;;;;;;;;;;;;;;;16.15;68.00;101092.33;1601428;88;20156;-77
2021/07/23 03:37:32;;;;;;;;;;;;;;;16.15;68.00;101089.72;1613047;88;20196;-77
2021/07/23 03:39:58;;;;;;;;;;;;;;;16.16;68.08;101087.52;1611315;88;20263;-77
2021/07/23 03:42:24;;;;;;;;;;;;;;;16.17;68.07;101089.22;1613215;88;20216;-77
2021/07/23 03:44:50;;;;;;;;;;;;;;;16.19;68.12;101089.17;1612911;88;20221;-77
2021/07/23 03:47:17;;;;;;;;;;;;;;;16.20;68.14;101090.43;1612480;88;20179;-77
2021/07/23 03:49:44;;;;;;;;;;;;;;;16.22;68.22;101087.77;1604501;88;20232;-77
2021/07/23 03:52:10;;;;;;;;;;;;;;;16.25;68.26;101094.20;1611672;88;20199;-77
2021/07/23 03:54:38;;;;;;;;;;;;;;;16.26;68.19;101095.91;1613999;88;20284;-77
2021/07/23 03:57:05;;;;;;;;;;;;;;;16.26;68.20;101089.38;1607136;88;20139;-77
2021/07/23 03:59:35;;;;;;;;;;;;;;;16.30;68.39;101091.45;1595397;88;20202;-77
2021/07/23 04:02:01;;;;;;;;;;;;;;;16.34;68.40;101088.69;1605810;88;20144;-77
2021/07/23 04:04:27;;;;;;;;;;;;;;;16.39;68.43;101086.78;1610275;88;20100;-77
2021/07/23 04:06:58;;;;;;;;;;;;;;;16.42;68.43;101083.22;1616508;88;20112;-77
2021/07/23 04:09:32;;;;;;;;;;;;;;;16.47;68.58;101078.70;1596535;88;20103;-77
2021/07/23 04:11:58;;;;;;;;;;;;;;;16.54;68.58;101080.21;1603469;88;20105;-77
2021/07/23 04:14:24;;;;;;;;;;;;;;;16.57;68.60;101073.58;1610852;88;20179;-77
2021/07/23 04:16:53;;;;;;;;;;;;;;;16.67;68.64;101069.76;1606902;88;20141;-77
2021/07/23 04:19:19;;;;;;;;;;;;;;;16.78;68.78;101077.23;1613394;88;20806;-77
2021/07/23 04:21:45;;;;;;;;;;;;;;;16.88;68.80;101073.40;1610986;88;20108;-77
2021/07/23 04:24:11;;;;;;;;;;;;;;;16.99;68.81;101073.88;1607497;88;20843;-77
2021/07/23 04:26:37;;;;;;;;;;;;;;;17.08;68.66;101072.70;1608513;88;20133;-77
2021/07/23 04:29:03;;;;;;;;;;;;;;;17.15;68.76;101076.36;1609085;88;20100;-77
2021/07/23 04:31:29;;;;;;;;;;;;;;;17.24;68.78;101079.52;1616974;88;20097;-77
2021/07/23 04:33:59;;;;;;;;;;;;;;;17.30;68.70;101079.30;1608483;88;20220;-77
2021/07/23 04:36:25;;;;;;;;;;;;;;;17.30;68.59;101082.77;1614223;88;20117;-77
2021/07/23 04:38:51;;;;;;;;;;;;;;;17.35;68.84;101085.20;1610718;88;20116;-77
2021/07/23 04:41:17;;;;;;;;;;;;;;;17.39;68.91;101085.05;1602649;88;20231;-77
2021/07/23 04:43:43;;;;;;;;;;;;;;;17.50;68.97;101084.19;1609464;88;21080;-77
2021/07/23 04:46:09;;;;;;;;;;;;;;;17.61;69.01;101080.33;1608652;88;20107;-77
2021/07/23 04:48:36;;;;;;;;;;;;;;;17.72;68.85;101083.39;1610390;88;20157;-77
2021/07/23 04:51:03;;;;;;;;;;;;;;;17.79;68.92;101085.72;1607545;88;20225;-77
2021/07/23 04:53:30;;;;;;;;;;;;;;;17.93;68.88;101081.27;1599416;88;20185;-77
2021/07/23 04:56:01;;;;;;;;;;;;;;;18.00;68.92;101085.80;1605861;88;33347;-77
2021/07/23 04:58:28;;;;;;;;;;;;;;;18.11;68.82;101084.47;1606314;88;20163;-77
2021/07/23 05:00:54;;;;;;;;;;;;;;;18.22;68.97;101093.17;1611702;88;20153;-77
2021/07/23 05:03:30;;;;;;;;;;;;;;;18.36;68.95;101083.00;1602267;88;20239;-77
2021/07/23 05:05:57;;;;;;;;;;;;;;;18.47;68.86;101083.42;1594672;88;20226;-77
2021/07/23 05:08:23;;;;;;;;;;;;;;;18.62;68.95;101080.66;1607260;88;20137;-77
2021/07/23 05:10:50;;;;;;;;;;;;;;;18.78;68.77;101082.14;1595123;89;20623;-77
2021/07/23 05:13:16;;;;;;;;;;;;;;;19.05;68.87;101080.11;1594346;88;20216;-77
2021/07/23 05:15:44;;;;;;;;;;;;;;;19.39;69.07;101078.13;1590168;89;20469;-77
2021/07/23 05:18:10;;;;;;;;;;;;;;;19.87;68.97;101083.36;1594821;89;20196;-77
2021/07/23 05:20:37;;;;;;;;;;;;;;;20.26;68.79;101081.92;1588635;88;20162;-77
2021/07/23 05:23:03;;;;;;;;;;;;;;;20.72;68.50;101082.66;1588784;89;20152;-77
2021/07/23 05:25:32;;;;;;;;;;;;;;;21.14;68.68;101082.67;1595692;89;20252;-77
2021/07/23 05:27:58;;;;;;;;;;;;;;;21.66;68.44;101078.11;1596999;89;20180;-77
2021/07/23 05:30:24;;;;;;;;;;;;;;;22.17;68.30;101081.89;1587880;89;20134;-77
2021/07/23 05:32:50;;;;;;;;;;;;;;;22.63;67.96;101081.37;1599148;88;20873;-77
2021/07/23 05:35:16;;;;;;;;;;;;;;;22.78;67.62;101076.09;1598623;89;20536;-77
2021/07/23 05:37:42;;;;;;;;;;;;;;;22.93;67.36;101074.77;1592975;88;20244;-77
2021/07/23 05:40:12;;;;;;;;;;;;;;;23.29;67.67;101076.48;1591583;89;20221;-77
2021/07/23 05:42:38;;;;;;;;;;;;;;;23.85;67.36;101069.92;1593532;88;20108;-77
2021/07/23 05:45:06;;;;;;;;;;;;;;;24.38;67.30;101069.92;1588941;89;20515;-77
2021/07/23 05:47:36;;;;;;;;;;;;;;;24.79;66.79;101074.20;1597851;89;20416;-77
2021/07/23 05:50:02;;;;;;;;;;;;;;;24.98;66.93;101071.14;1593875;89;20213;-77
2021/07/23 05:52:28;;;;;;;;;;;;;;;25.34;66.82;101069.92;1597243;88;20112;-77
2021/07/23 05:54:54;;;;;;;;;;;;;;;25.70;66.60;101067.78;1592053;89;20616;-76
2021/07/23 05:57:20;;;;;;;;;;;;;;;26.14;66.48;101072.09;1600608;89;20241;-76
2021/07/23 05:59:46;;;;;;;;;;;;;;;26.55;66.23;101077.81;1597859;89;20848;-76
2021/07/23 06:02:21;;;;;;;;;;;;;;;26.77;65.83;101074.37;1597482;86;20612;-77
2021/07/23 06:04:47;;;;;;;;;;;;;;;27.11;66.12;101077.09;1598709;88;20174;-77
2021/07/23 06:07:14;;;;;;;;;;;;;;;27.53;65.86;101075.05;1601678;88;20795;-77
2021/07/23 06:09:41;;;;;;;;;;;;;;;27.78;66.00;101070.42;1609903;88;20409;-77
2021/07/23 06:12:08;;;;;;;;;;;;;;;27.73;65.56;101073.94;1614548;88;20389;-77
2021/07/23 06:14:34;;;;;;;;;;;;;;;28.13;65.31;101075.49;1610508;88;20547;-77
2021/07/23 06:17:01;;;;;;;;;;;;;;;28.28;64.79;101077.77;1614498;88;20117;-77
2021/07/23 06:19:27;;;;;;;;;;;;;;;28.03;64.73;101072.77;1615552;88;20201;-77
2021/07/23 06:21:59;;;;;;;;;;;;;;;27.52;64.85;101073.36;1614305;88;20470;-77
2021/07/23 06:24:25;;;;;;;;;;;;;;;26.91;64.64;101082.13;1611476;88;20438;-78
2021/07/23 06:26:51;;;;;;;;;;;;;;;26.92;64.85;101079.84;1613966;88;20319;-77
2021/07/23 06:29:18;;;;;;;;;;;;;;;27.03;64.31;101086.49;1610575;88;20376;-77
2021/07/23 06:31:44;;;;;;;;;;;;;;;27.09;64.39;101078.54;1612326;88;20502;-77
2021/07/23 06:34:10;;;;;;;;;;;;;;;27.34;64.20;101078.80;1610015;88;20857;-77
2021/07/23 06:36:36;;;;;;;;;;;;;;;27.74;64.01;101077.80;1613501;88;20283;-77
2021/07/23 06:39:02;;;;;;;;;;;;;;;28.06;63.64;101081.83;1612288;88;20263;-77
2021/07/23 06:41:28;;;;;;;;;;;;;;;28.35;63.85;101072.78;1613488;88;20301;-77
2021/07/23 06:43:54;;;;;;;;;;;;;;;28.35;62.80;101072.78;1606618;88;20292;-77
2021/07/23 06:46:22;;;;;;;;;;;;;;;28.24;62.82;101078.99;1593996;88;20561;-77
2021/07/23 06:48:48;;;;;;;;;;;;;;;28.24;62.51;101078.99;1592164;88;20211;-77
2021/07/23 06:51:14;;;;;;;;;;;;;;;28.43;62.43;101079.64;1611420;88;20532;-77
2021/07/23 06:53:41;;;;;;;;;;;;;;;28.60;62.30;101082.19;1608486;88;20553;-77
2021/07/23 06:56:07;;;;;;;;;;;;;;;28.62;61.91;101086.41;1609930;88;20208;-77
2021/07/23 06:58:33;;;;;;;;;;;;;;;28.64;61.82;101080.95;1613375;88;20271;-77
2021/07/23 07:01:06;;;;;;;;;;;;;;;28.71;61.54;101080.80;1611308;88;20484;-76
2021/07/23 07:03:36;;;;;;;;;;;;;;;28.77;61.29;101077.61;1611866;88;20729;-76
2021/07/23 07:06:02;;;;;;;;;;;;;;;28.82;61.12;101080.77;1609883;88;21054;-76
2021/07/23 07:08:28;;;;;;;;;;;;;;;28.84;61.06;101078.81;1611793;88;20569;-76
2021/07/23 07:11:02;;;;;;;;;;;;;;;28.94;60.78;101082.86;1602038;88;20428;-76
2021/07/23 07:13:29;;;;;;;;;;;;;;;28.81;60.53;101088.36;1602207;88;20437;-76
2021/07/23 07:15:55;;;;;;;;;;;;;;;28.77;60.49;101084.27;1600807;88;20145;-76
2021/07/23 07:18:21;;;;;;;;;;;;;;;28.52;60.06;101080.69;1601906;88;20116;-76
2021/07/23 07:20:47;;;;;;;;;;;;;;;28.19;59.83;101074.98;1602143;88;20179;-76
2021/07/23 07:23:13;;;;;;;;;;;;;;;27.93;59.96;101075.34;1602199;88;20769;-76
2021/07/23 07:25:40;;;;;;;;;;;;;;;27.79;59.98;101074.77;1599100;88;20492;-76
2021/07/23 07:28:06;;;;;;;;;;;;;;;27.76;60.23;101082.50;1596597;88;20543;-76
2021/07/23 07:30:33;;;;;;;;;;;;;;;28.05;59.97;101077.48;1599930;88;20694;-76
2021/07/23 07:32:59;;;;;;;;;;;;;;;28.09;59.47;101078.89;1596927;89;20106;-76
2021/07/23 07:35:26;;;;;;;;;;;;;;;27.97;59.60;101088.74;1594834;89;20721;-76
2021/07/23 07:37:52;;;;;;;;;;;;;;;27.87;59.45;101086.95;1598923;88;20170;-76
2021/07/23 07:40:18;;;;;;;;;;;;;;;27.78;59.45;101087.70;1601945;89;20181;-76
2021/07/23 07:42:44;;;;;;;;;;;;;;;27.67;59.29;101084.09;1600387;89;20145;-76
2021/07/23 07:45:10;;;;;;;;;;;;;;;27.66;59.17;101081.55;1596590;89;20283;-76
2021/07/23 07:47:36;;;;;;;;;;;;;;;27.85;59.11;101084.42;1596811;88;20183;-78
2021/07/23 07:50:03;;;;;;;;;;;;;;;28.17;59.05;101081.77;1598346;88;20206;-78
2021/07/23 07:52:35;;;;;;;;;;;;;;;28.55;58.62;101081.27;1596079;88;20142;-79
2021/07/23 07:55:01;;;;;;;;;;;;;;;28.81;58.56;101080.86;1599705;88;20194;-77
2021/07/23 07:57:27;;;;;;;;;;;;;;;29.19;58.34;101083.73;1598223;88;20269;-77
2021/07/23 07:59:53;;;;;;;;;;;;;;;29.43;57.96;101079.95;1596489;88;20259;-77
2021/07/23 08:02:19;;;;;;;;;;;;;;;29.60;57.54;101078.81;1593876;88;20262;-77
2021/07/23 08:04:45;;;;;;;;;;;;;;;29.79;57.50;101083.81;1595707;89;20236;-77
2021/07/23 08:07:13;;;;;;;;;;;;;;;29.88;57.38;101083.83;1594908;88;20279;-76
2021/07/23 08:09:53;;;;;;;;;;;;;;;29.84;56.86;101078.91;1590693;88;20178;-76
2021/07/23 08:12:22;;;;;;;;;;;;;;;29.80;57.03;101074.84;1588753;89;20196;-76
2021/07/23 08:14:48;;;;;;;;;;;;;;;29.84;56.97;101074.91;1591018;89;20203;-76
2021/07/23 08:17:14;;;;;;;;;;;;;;;30.00;57.20;101076.59;1594650;88;20896;-76
2021/07/23 08:19:42;;;;;;;;;;;;;;;29.90;56.42;101077.03;1599387;89;20189;-76
2021/07/23 08:22:08;;;;;;;;;;;;;;;29.76;56.57;101076.93;1587818;89;20379;-76
2021/07/23 08:24:35;;;;;;;;;;;;;;;29.77;56.40;101077.77;1594903;89;20186;-76
2021/07/23 08:27:01;;;;;;;;;;;;;;;29.73;56.15;101081.69;1601467;89;20260;-76
2021/07/23 08:29:28;;;;;;;;;;;;;;;29.68;56.18;101076.77;1601913;89;20114;-76
2021/07/23 08:32:09;;;;;;;;;;;;;;;29.64;55.91;101075.36;1600948;89;20114;-76
2021/07/23 08:34:35;;;;;;;;;;;;;;;29.29;55.71;101071.80;1597072;89;20106;-76
2021/07/23 08:37:01;;;;;;;;;;;;;;;29.23;56.18;101074.50;1598246;89;20237;-76
2021/07/23 08:39:27;;;;;;;;;;;;;;;29.02;55.59;101072.40;1599335;89;20147;-76
2021/07/23 08:41:53;;;;;;;;;;;;;;;28.77;55.54;101072.28;1600208;89;20177;-76
2021/07/23 08:44:22;;;;;;;;;;;;;;;28.58;55.50;101058.88;1592730;89;20200;-76
2021/07/23 08:46:47;;;;;;;;;;;;;;;28.30;55.42;101067.00;1589258;88;20444;-76
2021/07/23 08:49:14;;;;;;;;;;;;;;;28.27;55.37;101064.11;1591442;89;20127;-76
2021/07/23 08:51:40;;;;;;;;;;;;;;;28.13;54.94;101056.39;1591151;89;20102;-76
2021/07/23 08:54:06;;;;;;;;;;;;;;;28.20;55.38;101056.73;1593440;89;20202;-76
2021/07/23 08:56:32;;;;;;;;;;;;;;;28.42;55.05;101058.48;1596944;89;20100;-76
2021/07/23 08:58:58;;;;;;;;;;;;;;;28.55;54.66;101058.66;1595143;89;20112;-76
2021/07/23 09:01:24;;;;;;;;;;;;;;;28.49;54.48;101061.83;1591842;89;20165;-76
2021/07/23 09:03:50;;;;;;;;;;;;;;;28.35;54.31;101062.14;1597222;89;20149;-76
2021/07/23 09:06:17;;;;;;;;;;;;;;;28.25;54.28;101060.73;1598548;89;20102;-76
2021/07/23 09:08:51;;;;;;;;;;;;;;;28.21;54.24;101059.75;1602677;88;20212;-76
2021/07/23 09:11:27;;;;;;;;;;;;;;;28.66;54.05;101053.72;1602469;89;20112;-76
2021/07/23 09:14:12;;;;;;;;;;;;;;;28.82;53.78;101054.14;1593507;89;20968;-76
2021/07/23 09:16:38;;;;;;;;;;;;;;;29.47;53.82;101054.23;1591135;89;20175;-76
2021/07/23 09:19:07;;;;;;;;;;;;;;;30.05;53.41;101053.01;1594029;89;20139;-76
2021/07/23 09:21:37;;;;;;;;;;;;;;;30.19;53.34;101055.23;1594268;89;20268;-76
2021/07/23 09:24:09;;;;;;;;;;;;;;;30.12;53.46;101058.14;1592372;89;20188;-76
2021/07/23 09:26:43;;;;;;;;;;;;;;;29.82;53.23;101055.05;1594832;88;20164;-76
2021/07/23 09:29:10;;;;;;;;;;;;;;;29.78;53.50;101048.31;1574555;89;20193;-76
2021/07/23 09:31:37;;;;;;;;;;;;;;;29.57;53.67;101048.92;1584115;89;20210;-76
2021/07/23 09:34:04;;;;;;;;;;;;;;;29.19;53.22;101051.77;1590123;89;20215;-76
2021/07/23 09:36:34;;;;;;;;;;;;;;;28.90;52.90;101050.33;1601875;89;20199;-76
2021/07/23 09:39:02;;;;;;;;;;;;;;;28.58;52.75;101051.74;1599544;88;20198;-76
2021/07/23 09:41:28;;;;;;;;;;;;;;;28.40;52.90;101047.13;1601668;89;20182;-76
2021/07/23 09:44:12;;;;;;;;;;;;;;;28.19;52.78;101049.72;1602670;89;20145;-76
2021/07/23 09:46:35;;;;;;;;;;;;;;;27.99;52.46;101048.25;1589535;89;20237;-76
2021/07/23 09:49:20;;;;;;;;;;;;;;;27.82;52.34;101046.61;1579458;89;20199;-76
2021/07/23 09:51:50;;;;;;;;;;;;;;;27.56;52.00;101044.22;1588615;88;20156;-76
2021/07/23 09:54:18;;;;;;;;;;;;;;;27.24;51.85;101043.30;1592873;88;20183;-75
2021/07/23 09:56:45;;;;;;;;;;;;;;;27.08;52.23;101044.14;1598326;89;20209;-75
2021/07/23 09:59:35;;;;;;;;;;;;;;;27.09;51.92;101045.84;1599368;88;20192;-75
2021/07/23 10:02:03;;;;;;;;;;;;;;;27.04;51.75;101039.08;1590088;89;20183;-75
2021/07/23 10:04:58;;;;;;;;;;;;;;;27.05;51.81;101041.25;1595019;88;20106;-75
2021/07/23 10:07:27;;;;;;;;;;;;;;;27.01;51.51;101038.50;1593867;89;20112;-75
2021/07/23 10:09:55;;;;;;;;;;;;;;;26.90;51.55;101035.32;1598717;88;20143;-75
2021/07/23 10:12:21;;;;;;;;;;;;;;;26.72;51.57;101024.80;1602669;88;20129;-75
2021/07/23 10:14:49;;;;;;;;;;;;;;;26.65;51.65;101028.41;1597255;88;20143;-75
2021/07/23 10:17:15;;;;;;;;;;;;;;;26.62;51.42;101031.77;1601971;89;20116;-75
2021/07/23 10:19:41;;;;;;;;;;;;;;;26.62;51.49;101023.81;1595692;89;20555;-75
2021/07/23 10:22:11;;;;;;;;;;;;;;;26.56;51.40;101022.95;1598651;89;20151;-75
2021/07/23 10:24:38;;;;;;;;;;;;;;;26.58;51.36;101019.70;1602965;88;20130;-75
2021/07/23 10:27:06;;;;;;;;;;;;;;;26.65;51.33;101018.27;1594628;89;20143;-75
2021/07/23 10:29:44;;;;;;;;;;;;;;;26.69;51.19;101017.92;1594503;88;20102;-77
2021/07/23 10:32:32;;;;;;;;;;;;;;;26.65;51.19;101013.81;1585264;89;20102;-77
2021/07/23 10:35:16;;;;;;;;;;;;;;;26.70;51.05;101011.66;1604115;89;20112;-77
2021/07/23 10:37:52;;;;;;;;;;;;;;;26.69;50.83;101015.27;1604562;89;20112;-77
2021/07/23 10:40:21;;;;;;;;;;;;;;;26.67;50.93;101011.05;1593539;89;20181;-77
2021/07/23 10:42:49;;;;;;;;;;;;;;;26.60;50.71;101015.97;1599437;89;20104;-77
2021/07/23 10:45:19;;;;;;;;;;;;;;;26.46;50.77;101018.02;1598870;88;20171;-77
2021/07/23 10:47:50;;;;;;;;;;;;;;;26.43;50.97;101012.95;1598036;88;20207;-77
2021/07/23 10:50:23;;;;;;;;;;;;;;;26.38;50.71;101014.14;1600192;88;20200;-76
2021/07/23 10:52:49;;;;;;;;;;;;;;;26.41;50.91;101012.22;1575196;88;20216;-76
2021/07/23 10:55:21;;;;;;;;;;;;;;;26.44;50.63;101007.53;1575078;88;20238;-76
2021/07/23 10:58:09;;;;;;;;;;;;;;;26.41;50.56;101006.91;1595643;88;20188;-76
2021/07/23 11:00:55;;;;;;;;;;;;;;;26.43;50.61;101008.97;1592194;89;20478;-75
2021/07/23 11:03:37;;;;;;;;;;;;;;;26.55;50.72;101004.02;1593287;89;20199;-76
2021/07/23 11:06:14;;;;;;;;;;;;;;;26.69;50.66;100999.34;1599073;89;20190;-76
2021/07/23 11:08:52;;;;;;;;;;;;;;;26.77;50.48;100998.76;1600867;89;20225;-76
2021/07/23 11:11:26;;;;;;;;;;;;;;;26.83;50.56;101000.09;1596525;88;20212;-77
2021/07/23 11:13:55;;;;;;;;;;;;;;;26.84;50.54;100990.68;1593017;89;20210;-75
2021/07/23 11:16:26;;;;;;;;;;;;;;;26.88;50.54;100992.13;1595664;89;20411;-76
2021/07/23 11:18:57;;;;;;;;;;;;;;;26.94;50.58;100994.30;1596482;89;20147;-75
2021/07/23 11:21:28;;;;;;;;;;;;;;;27.02;50.34;100993.73;1596466;89;20219;-75
2021/07/23 11:23:54;;;;;;;;;;;;;;;27.10;50.27;100991.77;1587285;89;20209;-75
2021/07/23 11:26:24;;;;;;;;;;;;;;;27.21;50.33;100983.80;1586683;89;20274;-75
2021/07/23 11:28:55;;;;;;;;;;;;;;;27.35;50.49;100983.55;1592462;89;20110;-75
2021/07/23 11:31:33;;;;;;;;;;;;;;;27.44;50.21;100976.65;1595840;88;20132;-75
2021/07/23 11:34:03;;;;;;;;;;;;;;;27.38;50.10;100974.00;1592295;89;20155;-76
2021/07/23 11:36:36;;;;;;;;;;;;;;;27.18;49.76;100977.41;1601108;89;20440;-75
2021/07/23 11:39:08;;;;;;;;;;;;;;;27.08;49.85;100971.98;1590965;89;20143;-76
2021/07/23 11:41:35;;;;;;;;;;;;;;;27.02;50.02;100972.50;1592095;88;20102;-76
2021/07/23 11:44:10;;;;;;;;;;;;;;;27.03;50.04;100974.19;1602732;89;20118;-73
2021/07/23 11:46:37;;;;;;;;;;;;;;;26.98;49.78;100967.08;1591796;89;20142;-74
2021/07/23 11:49:04;;;;;;;;;;;;;;;26.93;49.92;100964.75;1599382;88;20112;-74
2021/07/23 11:51:41;;;;;;;;;;;;;;;26.87;49.76;100956.42;1588574;89;20118;-74
2021/07/23 11:54:11;;;;;;;;;;;;;;;26.82;49.60;100954.61;1585733;89;20107;-74
2021/07/23 11:56:38;;;;;;;;;;;;;;;26.71;49.50;100957.62;1591926;89;20115;-73
2021/07/23 11:59:05;;;;;;;;;;;;;;;26.65;49.62;100964.73;1596737;88;20222;-73
2021/07/23 12:01:34;;;;;;;;;;;;;;;26.64;49.71;100959.55;1592587;89;20167;-74
2021/07/23 12:04:00;;;;;;;;;;;;;;;26.69;49.59;100954.25;1602805;88;20108;-73
2021/07/23 12:06:27;;;;;;;;;;;;;;;26.76;49.48;100951.12;1602699;89;20162;-75
2021/07/23 12:08:57;;;;;;;;;;;;;;;26.78;49.54;100945.20;1604463;89;20131;-75
2021/07/23 12:11:24;;;;;;;;;;;;;;;26.82;49.53;100949.31;1593085;89;20143;-75
2021/07/23 12:13:50;;;;;;;;;;;;;;;26.89;49.42;100941.23;1595046;89;20112;-75
2021/07/23 12:16:17;;;;;;;;;;;;;;;26.93;49.16;100944.84;1600687;89;20105;-74
2021/07/23 12:19:00;;;;;;;;;;;;;;;26.92;49.27;100939.66;1593048;89;20143;-74
2021/07/23 12:21:28;;;;;;;;;;;;;;;26.89;49.13;100948.70;1597735;89;20122;-74
2021/07/23 12:24:04;;;;;;;;;;;;;;;26.86;49.06;100946.30;1596005;88;20100;-74
2021/07/23 12:26:43;;;;;;;;;;;;;;;26.86;48.98;100948.11;1592553;88;20134;-74
2021/07/23 12:29:13;;;;;;;;;;;;;;;26.84;48.67;100946.05;1600708;89;20141;-74
2021/07/23 12:31:41;;;;;;;;;;;;;;;26.83;48.74;100944.36;1593484;88;20110;-74
2021/07/23 12:34:11;;;;;;;;;;;;;;;26.85;48.81;100946.41;1595121;88;20146;-74
2021/07/23 12:36:46;;;;;;;;;;;;;;;26.86;48.70;100944.97;1593735;89;20108;-74
2021/07/23 12:39:12;;;;;;;;;;;;;;;26.80;48.50;100952.08;1594104;89;20147;-74
2021/07/23 12:41:40;;;;;;;;;;;;;;;26.73;48.52;100944.72;1586625;89;20106;-74